• Join FlightAware (Why Join?)
  • Login
  • US Flag 
08:17AM EST


 

Airport Tracker/Info


-or-


 

Live Flight TrackerFlight Track Log ✈ DAL268 ✈ 17-Jun-2013 ✈ KSFO - KJFK

Flight Track Log - Related Links

Times and Time Zones

All times are in EDT time to prevent confusion due to time zone crossing. See the DAL268 flight status page for this flight to view local times or setup timezone preferences in your user account.

Time Position Orientation Groundspeed Altitude Reporting Facility
EDT Latitude Longitude Course Direction KTS MPH feet Rate Location/Type
02:39PM 37.6130 -122.3790 118° Southeast 27 31  Level FlightAware
02:40PM 37.6130 -122.3770 90° East 25 29  Level FlightAware
02:40PM 37.6120 -122.3770 180° South 28 32  Level FlightAware
02:41PM 37.6130 -122.3750 58° Northeast 15 17  Level FlightAware
02:41PM 37.6140 -122.3740 38° Northeast 30 35  Level FlightAware
02:43PM 37.6897 -122.1143 67° East  Level FlightAware Approximate
02:44PM 37.7436 -121.9718 65° Northeast  Level FlightAware Approximate
02:45PM 37.7958 -121.8282 65° Northeast  Level FlightAware Approximate
02:46PM 37.8396 -121.6813 67° East  Level FlightAware Approximate
02:46PM 37.6150 -122.3730 67° East 28 32  Level FlightAware
02:48PM 37.6130 -122.3670 135° Southeast 28 32  Level FlightAware
02:58PM 37.6212 -122.3810 298° West 173 199 100 60 Climbing FlightAware ADS-B
02:58PM 37.6239 -122.3870 300° West 159 183 700 4,500 Climbing FlightAware ADS-B
02:58PM 37.6257 -122.3900 307° West 155 178 1,000 4,500 Climbing FlightAware ADS-B
02:58PM 37.6286 -122.3930 321° Northwest 157 181 1,300 4,500 Climbing FlightAware ADS-B
02:58PM 37.6314 -122.3940 344° North 160 184 1,600 4,260 Climbing FlightAware ADS-B
02:58PM 37.6338 -122.3940 360° North 162 186 1,800 3,000 Climbing FlightAware ADS-B
02:58PM 37.6384 -122.3930 10° North 166 191 2,100 2,700 Climbing FlightAware ADS-B
02:58PM 37.6418 -122.3920 13° North 173 199 2,300 1,800 Climbing FlightAware ADS-B
02:58PM 37.6459 -122.3880 38° Northeast 183 211 2,400 1,200 Climbing FlightAware ADS-B
02:58PM 37.6485 -122.3850 42° Northeast 194 223 2,500 1,680 Climbing FlightAware ADS-B
02:58PM 37.6505 -122.3820 50° Northeast 199 229 2,600 2,220 Climbing FlightAware ADS-B
02:59PM 37.6528 -122.3770 60° Northeast 203 234 2,800 2,760 Climbing FlightAware ADS-B
02:59PM 37.6566 -122.3690 59° Northeast 206 237 3,200 2,400 Climbing FlightAware ADS-B
02:59PM 37.6601 -122.3610 61° Northeast 211 243 3,400 1,620 Climbing FlightAware ADS-B
02:59PM 37.6684 -122.3450 57° Northeast 226 260 3,800 1,920 Climbing FlightAware ADS-B
02:59PM 37.6777 -122.3270 57° Northeast 239 275 4,400 1,920 Climbing FlightAware ADS-B
03:00PM 37.6876 -122.3080 57° Northeast 259 298 4,800 1,680 Climbing FlightAware ADS-B
03:00PM 37.6944 -122.2950 57° Northeast 271 312 5,100 2,160 Climbing FlightAware ADS-B
03:00PM 37.7038 -122.2750 59° Northeast 280 322 5,700 2,760 Climbing FlightAware ADS-B
03:00PM 37.7131 -122.2540 61° Northeast 278 320 6,500 2,700 Climbing FlightAware ADS-B
03:01PM 37.7263 -122.2210 63° Northeast 293 337 7,400 2,520 Climbing FlightAware ADS-B
03:01PM 37.7335 -122.1990 68° East 295 339 8,000 3,000 Climbing FlightAware ADS-B
03:01PM 37.7413 -122.1720 70° East 297 342 8,900 2,880 Climbing FlightAware ADS-B
03:01PM 37.7488 -122.1460 70° East 304 350 9,600 2,580 Climbing FlightAware ADS-B
03:02PM 37.7635 -122.0960 70° East 309 356 10,900 1,920 Climbing FlightAware ADS-B
03:02PM 37.7798 -122.0390 70° East 346 398 11,600 1,080 Climbing FlightAware ADS-B
03:03PM 37.7981 -121.9780 69° East 382 440 12,000 1,440 Climbing FlightAware ADS-B
03:03PM 37.8208 -121.9010 70° East 402 463 13,200 1,980 Climbing FlightAware ADS-B
03:04PM 37.8398 -121.8340 70° East 415 478 14,200 2,160 Climbing FlightAware ADS-B
03:04PM 37.8594 -121.7630 71° East 422 486 15,400 2,580 Climbing FlightAware ADS-B
03:05PM 37.8698 -121.7260 70° East 418 481 16,200 2,580 Climbing FlightAware ADS-B
03:05PM 37.8778 -121.6930 73° East 419 482 16,700 2,340 Climbing FlightAware ADS-B
03:06PM 37.8937 -121.6180 75° East 423 487 18,000 1,980 Climbing FlightAware ADS-B
03:06PM 37.9076 -121.5440 77° East 434 499 18,800 1,800 Climbing FlightAware ADS-B
03:07PM 37.9226 -121.4640 77° East 442 509 19,900 1,800 Climbing FlightAware ADS-B
03:07PM 37.9371 -121.3880 76° East 449 517 20,700 1,620 Climbing FlightAware ADS-B
03:08PM 37.9730 -121.2010 76° East 466 536 22,700 1,680 Climbing FlightAware
03:09PM 37.9890 -121.1250 75° East 470 541 23,500 1,380 Climbing FlightAware
03:09PM 38.0120 -121.0110 76° East 485 558 24,300 1,320 Climbing FlightAware
03:10PM 38.0360 -120.8890 76° East 492 566 25,400 1,260 Climbing FlightAware
03:11PM 38.0670 -120.7270 76° East 508 585 26,500 1,080 Climbing FlightAware
03:12PM 38.0860 -120.6240 77° East 517 595 27,100 960 Climbing FlightAware
03:13PM 38.1150 -120.4680 77° East 529 609 27,900 1,200 Climbing FlightAware
03:13PM 38.1360 -120.3510 77° East 528 608 28,900 1,500 Climbing FlightAware
03:14PM 38.1600 -120.2220 77° East 523 602 30,000 1,560 Climbing FlightAware
03:15PM 38.1840 -120.0920 77° East 519 597 31,200 1,440 Climbing FlightAware
03:15PM 38.2050 -119.9770 77° East 517 595 32,100 1,380 Climbing FlightAware
03:16PM 38.2270 -119.8530 77° East 510 587 33,100 1,380 Climbing FlightAware
03:17PM 38.2590 -119.6790 77° East 508 585 34,400 720 Climbing FlightAware
03:18PM 38.2770 -119.5760 77° East 508 585 34,400 840 Level FlightAware
03:18PM 38.2340 -119.8180 257° West 35,300 1,380 Climbing FlightAware
03:19PM 38.3140 -119.3650 77° East 512 589 36,000 840 Climbing FlightAware
03:20PM 38.3370 -119.2360 77° East 511 588 36,600 660 Climbing FlightAware
03:20PM 38.3580 -119.1120 78° East 514 592 37,000 300 Climbing FlightAware
03:21PM 38.3750 -119.0190 77° East 514 592 37,000  Level FlightAware
03:22PM 38.3970 -118.8990 77° East 514 592 37,000  Level FlightAware
03:22PM 38.4140 -118.8060 77° East 514 592 37,000  Level FlightAware
03:23PM 38.4360 -118.6830 77° East 514 592 37,000  Level FlightAware
03:24PM 38.4520 -118.5970 77° East 514 592 37,000  Level FlightAware
03:25PM 38.4740 -118.4710 77° East 514 592 37,000  Level FlightAware
03:25PM 38.4910 -118.3810 76° East 514 592 37,000  Level FlightAware
03:26PM 38.5130 -118.2570 77° East 514 592 37,000  Level FlightAware
03:27PM 38.5300 -118.1640 77° East 514 592 37,000  Level FlightAware
03:27PM 38.5510 -118.0490 77° East 514 592 37,000  Level FlightAware
03:28PM 38.5670 -117.9600 77° East 514 592 37,000  Level FlightAware
03:29PM 38.5880 -117.8390 77° East 514 592 37,000  Level FlightAware
03:29PM 38.6050 -117.7460 77° East 514 592 37,000  Level FlightAware
03:30PM 38.6270 -117.6230 77° East 514 592 37,000  Level FlightAware
03:31PM 38.6758 -117.1753 77° East 500 575 37,000  Level Salt Lake Center
03:32PM 38.6986 -117.0350 78° East 500 575 37,000  Level Oakland Center
03:33PM 38.7253 -116.8597 79° East 498 573 37,000  Level Oakland Center
03:34PM 38.7644 -116.6522 76° East 499 574 37,000  Level Salt Lake Center
03:35PM 38.8086 -116.4850 71° East 494 568 37,000  Level Oakland Center
03:36PM 38.8528 -116.3158 71° East 498 573 37,000  Level Oakland Center
03:38PM 38.9053 -116.1144 71° East 497 572 37,000  Level Salt Lake Center
03:39PM 38.9494 -115.9472 71° East 495 570 37,000  Level Salt Lake Center
03:40PM 38.9925 -115.7797 72° East 493 567 37,000  Level Salt Lake Center
03:41PM 39.0350 -115.6131 72° East 492 566 37,000  Level Salt Lake Center
03:42PM 39.0783 -115.4447 72° East 493 567 37,000  Level Salt Lake Center
03:43PM 39.1244 -115.2639 72° East 495 570 37,000  Level Salt Lake Center
03:44PM 39.1686 -115.0864 72° East 493 567 37,000  Level Salt Lake Center
03:45PM 39.2072 -114.9269 73° East 488 562 37,000  Level Salt Lake Center
03:46PM 39.2553 -114.7372 72° East 496 571 37,000  Level Salt Lake Center
03:47PM 39.2939 -114.5778 73° East 491 565 37,000  Level Salt Lake Center
03:53PM 39.5420 -113.5420 73° East 490 564 37,000  Level FlightAware
03:54PM 39.5690 -113.4290 73° East 488 562 37,000  Level FlightAware
03:54PM 39.5960 -113.3140 73° East 488 562 37,000  Level FlightAware
03:55PM 39.6420 -113.1110 74° East 488 562 37,000  Level FlightAware
03:56PM 39.6730 -112.9790 73° East 487 560 37,000  Level FlightAware
03:57PM 39.6960 -112.8810 73° East 487 560 37,000  Level FlightAware
03:58PM 39.7160 -112.7930 74° East 487 560 37,000  Level FlightAware
03:58PM 39.7530 -112.6230 74° East 488 562 37,000  Level FlightAware
03:59PM 39.7820 -112.4920 74° East 489 563 37,000  Level FlightAware
04:00PM 39.8060 -112.3880 73° East 488 562 37,000  Level FlightAware
04:00PM 39.8290 -112.2820 74° East 488 562 37,000  Level FlightAware
04:01PM 39.8650 -112.1180 74° East 487 560 37,000  Level FlightAware
04:02PM 39.8910 -112.0010 74° East 487 560 37,000  Level FlightAware
04:03PM 39.9190 -111.8690 75° East 489 563 37,000  Level FlightAware
04:03PM 39.9420 -111.7620 74° East 489 563 37,000  Level FlightAware
04:04PM 39.9710 -111.6280 74° East 489 563 37,000  Level FlightAware
04:05PM 39.9910 -111.5350 74° East 489 563 37,000  Level FlightAware
04:05PM 40.0170 -111.4120 75° East 490 564 37,000  Level FlightAware
04:06PM 40.0430 -111.2900 74° East 490 564 37,000  Level FlightAware
04:07PM 40.0720 -111.1550 74° East 491 565 37,000  Level FlightAware
04:08PM 40.0960 -111.0380 75° East 491 565 37,000  Level FlightAware
04:08PM 40.1180 -110.9340 75° East 491 565 37,000  Level FlightAware
04:09PM 40.1440 -110.8080 75° East 489 563 37,000  Level FlightAware
04:10PM 40.1690 -110.6850 75° East 488 562 37,000  Level FlightAware
04:10PM 40.1910 -110.5760 75° East 487 560 37,000  Level FlightAware
04:11PM 40.2200 -110.4330 75° East 488 562 37,000  Level FlightAware
04:12PM 40.2430 -110.3210 75° East 488 562 37,000  Level FlightAware
04:12PM 40.2630 -110.2210 75° East 487 560 37,000  Level FlightAware
04:13PM 40.2920 -110.0730 76° East 487 560 37,000  Level FlightAware
04:14PM 40.3130 -109.9690 75° East 487 560 37,000  Level FlightAware
04:15PM 40.3400 -109.8440 74° East 487 560 37,000  Level FlightAware
04:15PM 40.3810 -109.7230 66° East 486 559 37,000  Level FlightAware
04:16PM 40.4140 -109.6270 66° East 486 559 37,000  Level FlightAware
04:17PM 40.4590 -109.4930 66° East 486 559 37,000  Level FlightAware
04:17PM 40.4940 -109.3910 66° East 486 559 37,000  Level FlightAware
04:18PM 40.5290 -109.2870 66° East 486 559 37,000  Level FlightAware
04:19PM 40.5710 -109.1630 66° East 487 560 37,000  Level FlightAware
04:20PM 40.6070 -109.0440 68° East 486 559 37,000  Level FlightAware
04:20PM 40.6350 -108.9300 72° East 485 558 37,000  Level FlightAware
04:21PM 40.6640 -108.8060 73° East 486 559 37,000  Level FlightAware
04:22PM 40.6890 -108.6920 74° East 486 559 37,000  Level FlightAware
04:22PM 40.7160 -108.5740 73° East 486 559 37,000  Level FlightAware
04:23PM 40.7430 -108.4520 74° East 486 559 37,000  Level FlightAware
04:24PM 40.7670 -108.3470 73° East 487 560 37,000  Level FlightAware
04:24PM 40.7960 -108.2140 74° East 488 562 37,000  Level FlightAware
04:25PM 40.8220 -108.0950 74° East 488 562 37,000  Level FlightAware
04:26PM 40.8500 -107.9700 73° East 488 562 37,000  Level FlightAware
04:27PM 40.8740 -107.8570 74° East 487 560 37,000  Level FlightAware
04:27PM 40.9010 -107.7360 74° East 488 562 37,000  Level FlightAware
04:28PM 40.9280 -107.6090 74° East 488 562 37,000  Level FlightAware
04:29PM 40.9540 -107.4910 74° East 489 563 37,000  Level FlightAware
04:29PM 40.9940 -107.3790 65° Northeast 485 558 37,000  Level FlightAware
04:30PM 41.0280 -107.2830 65° Northeast 485 558 37,000  Level FlightAware
04:31PM 41.0740 -107.1540 65° Northeast 484 557 37,000  Level FlightAware
04:31PM 41.0990 -107.0850 64° Northeast 483 556 37,000  Level FlightAware
04:32PM 41.1360 -106.9810 65° Northeast 483 556 37,000  Level FlightAware
04:33PM 41.1760 -106.8670 65° Northeast 482 555 37,000  Level FlightAware
04:33PM 41.2160 -106.7470 66° East 484 557 37,000  Level FlightAware
04:34PM 41.2550 -106.6210 68° East 483 556 37,000  Level FlightAware
04:35PM 41.2880 -106.5110 68° East 483 556 37,000  Level FlightAware
04:35PM 41.3230 -106.3960 68° East 485 558 37,000  Level FlightAware
04:36PM 41.3600 -106.2780 67° East 486 559 37,000  Level FlightAware
04:37PM 41.3920 -106.1660 69° East 486 559 37,000  Level FlightAware
04:38PM 41.4290 -106.0410 68° East 486 559 37,000  Level FlightAware
04:38PM 41.4630 -105.9240 69° East 484 557 37,000  Level FlightAware
04:39PM 41.4970 -105.8060 69° East 487 560 37,000  Level FlightAware
04:40PM 41.5280 -105.6960 69° East 489 563 37,000  Level FlightAware
04:40PM 41.5570 -105.5890 70° East 491 565 37,000  Level FlightAware
04:41PM 41.5940 -105.4570 69° East 490 564 37,000  Level FlightAware
04:42PM 41.6230 -105.3550 69° East 490 564 37,000  Level FlightAware
04:42PM 41.6630 -105.2120 69° East 490 564 37,000  Level FlightAware
04:43PM 41.6730 -105.1760 70° East 491 565 37,000  Level FlightAware ADS-B
04:43PM 41.6872 -105.1240 70° East 492 566 37,000  Level FlightAware ADS-B
04:43PM 41.7036 -105.0350 76° East 490 564 37,000  Level FlightAware ADS-B
04:44PM 41.7193 -104.9430 77° East 491 565 37,000  Level FlightAware ADS-B
04:45PM 41.7344 -104.8530 77° East 493 567 37,000  Level FlightAware ADS-B
04:45PM 41.7469 -104.7620 80° East 492 566 37,000  Level FlightAware ADS-B
04:46PM 41.7592 -104.6720 80° East 493 567 37,000  Level FlightAware ADS-B
04:46PM 41.7721 -104.5810 79° East 494 568 37,000  Level FlightAware ADS-B
04:47PM 41.7852 -104.4890 79° East 493 567 37,000  Level FlightAware ADS-B
04:47PM 41.7988 -104.3960 79° East 493 567 37,000  Level FlightAware ADS-B
04:48PM 41.8119 -104.3070 79° East 492 566 37,000  Level FlightAware ADS-B
04:48PM 41.8262 -104.2070 79° East 491 565 37,000  Level FlightAware ADS-B
04:49PM 41.8390 -104.1180 79° East 490 564 37,000  Level FlightAware ADS-B
04:49PM 41.8518 -104.0270 79° East 490 564 37,000  Level FlightAware ADS-B
04:50PM 41.8664 -103.9240 79° East 489 563 37,000  Level FlightAware ADS-B
04:50PM 41.8791 -103.8330 79° East 489 563 37,000  Level FlightAware ADS-B
04:51PM 41.8867 -103.7670 81° East 493 567 37,000  Level FlightAware ADS-B
04:51PM 41.8873 -103.7430 88° East 495 570 37,000  Level FlightAware ADS-B
04:51PM 41.8870 -103.7280 92° East 495 570 37,000  Level FlightAware ADS-B
04:51PM 41.8842 -103.6920 96° East 497 572 37,000  Level FlightAware ADS-B
04:51PM 41.8739 -103.6000 99° East 497 572 37,000  Level FlightAware ADS-B
04:52PM 41.8634 -103.5080 99° East 497 572 37,000  Level FlightAware ADS-B
04:52PM 41.8531 -103.4160 99° East 496 571 37,000  Level FlightAware ADS-B
04:53PM 41.8428 -103.3240 99° East 496 571 37,000  Level FlightAware ADS-B
04:53PM 41.8375 -103.2790 99° East 496 571 37,000  Level FlightAware ADS-B
04:54PM 41.8214 -103.1720 101° East 495 570 37,000  Level FlightAware ADS-B
04:54PM 41.8074 -103.0800 102° East 496 571 37,000  Level FlightAware ADS-B
04:55PM 41.7938 -102.9890 101° East 497 572 37,000  Level FlightAware ADS-B
04:55PM 41.7804 -102.8980 101° East 497 572 37,000  Level FlightAware ADS-B
04:56PM 41.7668 -102.8060 101° East 498 573 37,000  Level FlightAware ADS-B
04:56PM 41.7535 -102.7140 101° East 500 575 37,000  Level FlightAware ADS-B
04:57PM 41.7393 -102.6150 101° East 500 575 37,000  Level FlightAware ADS-B
04:57PM 41.7263 -102.5240 101° East 500 575 37,000  Level FlightAware ADS-B
04:58PM 41.7130 -102.4310 101° East 500 575 37,000  Level FlightAware ADS-B
04:59PM 41.6978 -102.3250 101° East 500 575 37,000  Level FlightAware ADS-B
04:59PM 41.6780 -102.1850 101° East 500 575 37,000 60 Level FlightAware ADS-B
05:00PM 41.6611 -102.0670 101° East 499 574 37,100 660 Climbing FlightAware ADS-B
05:00PM 41.6487 -101.9770 100° East 491 565 37,800 1,140 Climbing FlightAware ADS-B
05:01PM 41.6376 -101.8870 99° East 492 566 38,300 780 Climbing FlightAware ADS-B
05:02PM 41.6216 -101.7490 99° East 493 567 38,800 540 Climbing FlightAware ADS-B
05:02PM 41.6149 -101.6900 99° East 494 568 38,900 300 Climbing FlightAware ADS-B
05:02PM 41.6121 -101.6460 95° East 496 571 39,000 120 Climbing FlightAware ADS-B
05:03PM 41.6163 -101.5750 85° East 496 571 39,000  Level FlightAware ADS-B
05:03PM 41.6223 -101.5400 77° East 495 570 39,000  Level FlightAware ADS-B
05:03PM 41.6243 -101.5310 73° East 494 568 39,000  Level FlightAware ADS-B
05:03PM 41.6325 -101.5010 70° East 493 567 39,000  Level FlightAware ADS-B
05:04PM 41.6588 -101.4170 67° East 496 571 39,000  Level FlightAware ADS-B
05:04PM 41.6858 -101.3300 67° East 500 575 39,000  Level FlightAware ADS-B
05:05PM 41.7042 -101.2692 67° East 495 570 39,000  Level Denver Center
05:06PM 41.7650 -101.0750 67° East 504 580 39,000  Level Denver Center
05:07PM 41.8161 -100.9094 67° East 503 579 39,000  Level Denver Center
05:08PM 41.8839 -100.6892 67° East 498 573 39,000  Level Denver Center
05:09PM 41.9344 -100.5214 68° East 503 579 39,000  Level Denver Center
05:10PM 41.9786 -100.3739 68° East 504 580 39,000  Level Minneapolis Center
05:10PM 42.0022 -100.2986 67° East 505 581 39,000  Level Denver Center
05:11PM 42.0517 -100.1303 68° East 504 580 39,000  Level Denver Center
05:12PM 42.0839 -100.0239 68° East 505 581 39,000  Level Minneapolis Center
05:13PM 42.1475 -99.8119 68° East 505 581 39,000  Level Minneapolis Center
05:14PM 42.2072 -99.6025 69° East 502 578 39,000  Level Minneapolis Center
05:15PM 42.2586 -99.4283 68° East 498 573 39,000  Level Minneapolis Center
05:16PM 42.3094 -99.2542 68° East 498 573 39,000  Level Minneapolis Center
05:17PM 42.3594 -99.0786 69° East 498 573 39,000  Level Minneapolis Center
05:18PM 42.3997 -98.9378 69° East 499 574 39,000  Level Minneapolis Center
05:19PM 42.4586 -98.7272 69° East 498 573 39,000  Level Minneapolis Center
05:20PM 42.4781 -98.5392 82° East 504 580 39,000  Level Minneapolis Center
05:21PM 42.4892 -98.3097 86° East 507 583 39,000  Level Minneapolis Center
05:27PM 42.5360 -97.2200 86° East 510 587 39,000  Level FlightAware
05:28PM 42.5420 -97.0780 87° East 510 587 39,000  Level FlightAware
05:28PM 42.5470 -96.9450 87° East 510 587 39,000  Level FlightAware
05:29PM 42.5510 -96.8170 88° East 509 586 39,000  Level FlightAware
05:30PM 42.5550 -96.6920 87° East 510 587 39,000  Level FlightAware
05:31PM 42.5600 -96.5500 87° East 511 588 39,000  Level FlightAware
05:31PM 42.5650 -96.4050 87° East 511 588 39,000  Level FlightAware
05:32PM 42.5690 -96.2720 88° East 512 589 39,000  Level FlightAware
05:33PM 42.5730 -96.1430 88° East 512 589 39,000  Level FlightAware
05:33PM 42.5760 -96.0280 88° East 512 589 39,000  Level FlightAware
05:34PM 42.5800 -95.8830 88° East 513 590 39,000  Level FlightAware
05:35PM 42.5840 -95.7310 88° East 513 590 39,000  Level FlightAware
05:35PM 42.5870 -95.6040 88° East 514 592 39,000  Level FlightAware
05:36PM 42.5900 -95.4700 88° East 515 593 39,000  Level FlightAware
05:37PM 42.5930 -95.3280 88° East 515 593 39,000  Level FlightAware
05:37PM 42.5960 -95.2040 88° East 515 593 39,000  Level FlightAware
05:38PM 42.5990 -95.0580 88° East 514 592 39,000  Level FlightAware
05:39PM 42.6010 -94.9340 89° East 514 592 39,000  Level FlightAware
05:40PM 42.6040 -94.7980 88° East 514 592 39,000  Level FlightAware
05:40PM 42.6060 -94.6620 89° East 515 593 39,000  Level FlightAware
05:41PM 42.6080 -94.5290 89° East 516 594 39,000  Level FlightAware
05:42PM 42.6100 -94.3940 89° East 517 595 39,000  Level FlightAware
05:42PM 42.6120 -94.2590 89° East 517 595 39,000  Level FlightAware
05:43PM 42.6130 -94.1150 89° East 518 596 39,000  Level FlightAware
05:44PM 42.6140 -93.9800 89° East 519 597 39,000  Level FlightAware
05:44PM 42.6150 -93.8670 89° East 519 597 39,000  Level FlightAware
05:45PM 42.6150 -93.7100 90° East 520 598 39,000  Level FlightAware
05:46PM 42.6160 -93.5630 89° East 520 598 39,000  Level FlightAware
05:47PM 42.6160 -93.4300 90° East 521 600 39,000  Level FlightAware
05:47PM 42.6170 -93.3050 89° East 522 601 39,000  Level FlightAware
05:48PM 42.6170 -93.1720 90° East 522 601 39,000  Level FlightAware
05:49PM 42.6170 -93.0270 90° East 523 602 39,000  Level FlightAware
05:49PM 42.6160 -92.8840 90° East 524 603 39,000  Level FlightAware
05:50PM 42.6160 -92.7470 90° East 525 604 39,000  Level FlightAware
05:51PM 42.6150 -92.6200 91° East 527 606 39,000  Level FlightAware
05:52PM 42.6150 -92.4670 90° East 528 608 39,000  Level FlightAware
05:52PM 42.6140 -92.3310 91° East 528 608 39,000  Level FlightAware
05:53PM 42.6130 -92.2110 91° East 529 609 39,000  Level FlightAware
05:54PM 42.6110 -92.0560 91° East 529 609 39,000  Level FlightAware
05:54PM 42.6100 -91.9210 91° East 526 605 39,000  Level FlightAware
05:55PM 42.6080 -91.7730 91° East 524 603 39,000  Level FlightAware
05:56PM 42.6070 -91.6560 91° East 523 602 39,000  Level FlightAware
05:56PM 42.6050 -91.5110 91° East 521 600 39,000  Level FlightAware
05:57PM 42.6030 -91.3750 91° East 521 600 39,000  Level FlightAware
05:58PM 42.6000 -91.2240 91° East 521 600 39,000  Level FlightAware
05:59PM 42.5980 -91.0880 91° East 521 600 39,000  Level FlightAware
05:59PM 42.5950 -90.9470 92° East 522 601 39,000  Level FlightAware
06:00PM 42.5930 -90.8220 91° East 522 601 39,000  Level FlightAware
06:00PM 42.5900 -90.7100 92° East 523 602 39,000  Level FlightAware
06:01PM 42.5870 -90.5640 92° East 524 603 39,000  Level FlightAware
06:02PM 42.5840 -90.4250 92° East 525 604 39,000  Level FlightAware
06:03PM 42.5810 -90.2940 92° East 527 606 39,000  Level FlightAware
06:03PM 42.5770 -90.1630 92° East 527 606 39,000  Level FlightAware
06:04PM 42.5730 -90.0110 92° East 528 608 39,000  Level FlightAware
06:05PM 42.5700 -89.8790 92° East 529 609 39,000  Level FlightAware
06:05PM 42.5650 -89.7330 93° East 530 610 39,000  Level FlightAware
06:06PM 42.5610 -89.5870 92° East 529 609 39,000  Level FlightAware
06:07PM 42.5570 -89.4690 93° East 531 611 39,000  Level FlightAware
06:07PM 42.5520 -89.3190 93° East 533 613 39,000  Level FlightAware
06:08PM 42.5470 -89.1790 93° East 533 613 39,000  Level FlightAware
06:09PM 42.5420 -89.0350 93° East 533 613 39,000  Level FlightAware
06:10PM 42.5370 -88.8930 93° East 534 615 39,000  Level FlightAware
06:10PM 42.5320 -88.7550 93° East 535 616 39,000  Level FlightAware
06:11PM 42.5270 -88.6400 93° East 538 619 39,000  Level FlightAware
06:12PM 42.5210 -88.4940 93° East 541 623 39,000  Level FlightAware
06:12PM 42.5150 -88.3490 93° East 540 621 39,000  Level FlightAware
06:13PM 42.5090 -88.2050 93° East 543 625 39,000  Level FlightAware
06:14PM 42.5030 -88.0650 93° East 545 627 39,000  Level FlightAware
06:14PM 42.5000 -87.9230 92° East 548 631 39,000  Level FlightAware
06:15PM 42.5000 -87.7710 90° East 550 633 39,000  Level FlightAware
06:16PM 42.4990 -87.6520 91° East 552 635 39,000  Level FlightAware
06:17PM 42.4990 -87.4900 90° East 553 636 39,000  Level FlightAware
06:17PM 42.4980 -87.3570 91° East 554 638 39,000  Level FlightAware
06:18PM 42.4970 -87.1960 90° East 553 636 39,000  Level FlightAware
06:19PM 42.4960 -87.0420 90° East 553 636 39,000  Level FlightAware
06:19PM 42.4950 -86.9310 91° East 554 638 39,000  Level FlightAware
06:20PM 42.4940 -86.7520 90° East 555 639 39,000  Level FlightAware
06:21PM 42.4920 -86.6270 91° East 557 641 39,000  Level FlightAware
06:21PM 42.4900 -86.4610 91° East 559 643 39,000  Level FlightAware
06:22PM 42.4880 -86.3200 91° East 561 646 39,000  Level FlightAware
06:23PM 42.4860 -86.1680 91° East 561 646 39,000  Level FlightAware
06:24PM 42.4840 -86.0260 91° East 561 646 39,000  Level FlightAware
06:24PM 42.4810 -85.8700 91° East 562 647 39,000  Level FlightAware
06:25PM 42.4780 -85.7260 92° East 562 647 39,000  Level FlightAware
06:26PM 42.4750 -85.5760 92° East 563 648 39,000  Level FlightAware
06:26PM 42.4720 -85.4360 92° East 564 649 39,000  Level FlightAware
06:27PM 42.4690 -85.2900 92° East 564 649 39,000  Level FlightAware
06:28PM 42.4650 -85.1330 92° East 565 650 39,000  Level FlightAware
06:28PM 42.4610 -84.9920 92° East 566 651 39,000  Level FlightAware
06:29PM 42.4570 -84.8350 92° East 567 652 39,000  Level FlightAware
06:30PM 42.4530 -84.6990 92° East 566 651 39,000  Level FlightAware
06:30PM 42.4490 -84.5550 92° East 561 646 39,000  Level FlightAware
06:31PM 42.4440 -84.3920 92° East 556 640 39,000  Level FlightAware
06:32PM 42.4400 -84.2560 92° East 556 640 39,000  Level FlightAware
06:33PM 42.4350 -84.1020 92° East 556 640 39,000  Level FlightAware
06:33PM 42.4320 -84.0100 92° East 556 640 39,000  Level FlightAware
06:34PM 42.4250 -83.8200 93° East 556 640 39,000  Level FlightAware
06:35PM 42.4200 -83.6910 93° East 555 639 39,000  Level FlightAware
06:35PM 42.4140 -83.5290 93° East 554 638 39,000  Level FlightAware
06:36PM 42.4080 -83.3770 93° East 552 635 39,000  Level FlightAware
06:37PM 42.4020 -83.2380 93° East 552 635 39,000  Level FlightAware
06:38PM 42.3960 -83.0950 93° East 551 634 39,000  Level FlightAware
06:38PM 42.3900 -82.9560 93° East 551 634 39,000  Level FlightAware
06:39PM 42.3840 -82.8100 93° East 551 634 39,000  Level FlightAware
06:40PM 42.3770 -82.6630 94° East 548 631 39,000  Level FlightAware
06:40PM 42.3720 -82.5200 93° East 549 632 39,000  Level FlightAware
06:41PM 42.3670 -82.3820 93° East 549 632 39,000  Level FlightAware
06:42PM 42.3610 -82.2540 94° East 548 631 39,000  Level FlightAware
06:42PM 42.3560 -82.1290 93° East 548 631 39,000  Level FlightAware
06:43PM 42.3490 -81.9600 93° East 550 633 39,000  Level FlightAware
06:44PM 42.3430 -81.8250 93° East 550 633 39,000  Level FlightAware
06:44PM 42.3360 -81.6700 93° East 551 634 39,000  Level FlightAware
06:45PM 42.3280 -81.5220 94° East 555 639 39,000  Level FlightAware
06:46PM 42.3210 -81.3640 93° East 555 639 39,000  Level FlightAware
06:47PM 42.3150 -81.2380 94° East 559 643 39,000  Level FlightAware
06:47PM 42.3070 -81.0860 94° East 559 643 39,000 -180 Level FlightAware
06:48PM 42.2990 -80.9240 94° East 554 638 38,800 -1,020 Descending FlightAware
06:49PM 42.2910 -80.7810 94° East 558 642 37,600 -1,440 Descending FlightAware
06:49PM 42.2840 -80.6560 94° East 576 663 37,000 -480 Descending FlightAware
06:50PM 42.2690 -80.5360 100° East 577 664 37,000  Level FlightAware
06:51PM 42.2460 -80.3870 102° East 570 656 37,000  Level FlightAware
06:52PM 42.2220 -80.2240 101° East 569 655 37,000  Level FlightAware
06:52PM 42.1940 -80.0320 101° East 568 654 37,000  Level FlightAware
06:53PM 42.1760 -79.9040 101° East 567 652 37,000  Level FlightAware
06:54PM 42.1550 -79.7520 101° East 566 651 37,000  Level FlightAware
06:54PM 42.1340 -79.6080 101° East 563 648 37,000  Level FlightAware
06:55PM 42.1140 -79.4630 100° East 561 646 37,000  Level FlightAware
06:56PM 42.0920 -79.3140 101° East 560 644 37,000  Level FlightAware
06:57PM 42.0740 -79.1910 101° East 559 643 37,000  Level FlightAware
06:57PM 42.0430 -78.9870 101° East 561 646 37,000  Level FlightAware
06:58PM 42.0230 -78.8540 101° East 561 646 37,000  Level FlightAware
06:59PM 42.0000 -78.7070 102° East 562 647 37,000  Level FlightAware
06:59PM 41.9760 -78.5530 102° East 571 657 37,000  Level FlightAware
07:00PM 41.9550 -78.4160 102° East 576 663 37,000  Level FlightAware
07:01PM 41.9340 -78.2850 102° East 578 665 37,000  Level FlightAware
07:02PM 41.9090 -78.1260 102° East 577 664 37,000  Level FlightAware
07:02PM 41.8850 -77.9740 102° East 577 664 37,000  Level FlightAware
07:03PM 41.8580 -77.8330 104° East 576 663 37,000  Level FlightAware
07:04PM 41.8200 -77.6790 108° East 574 661 37,000  Level FlightAware
07:04PM 41.7840 -77.5430 110° East 573 659 37,000  Level FlightAware
07:05PM 41.7450 -77.3970 110° East 572 658 37,000  Level FlightAware
07:06PM 41.7090 -77.2650 110° East 571 657 37,000  Level FlightAware
07:06PM 41.6740 -77.1350 110° East 570 656 37,000  Level FlightAware
07:07PM 41.6453 -77.0276 110° East 571 657 37,000  Level FlightAware ADS-B
07:08PM 41.6157 -76.9186 110° East 571 657 37,000  Level FlightAware ADS-B
07:08PM 41.5880 -76.8173 110° East 569 655 37,000  Level FlightAware ADS-B
07:09PM 41.5598 -76.7143 110° East 569 655 37,000  Level FlightAware ADS-B
07:09PM 41.5319 -76.6129 110° East 570 656 37,000  Level FlightAware ADS-B
07:10PM 41.5045 -76.5137 110° East 569 655 37,000 -300 Level FlightAware ADS-B
07:10PM 41.4760 -76.4105 110° East 567 652 36,700 -1,500 Descending FlightAware ADS-B
07:11PM 41.4459 -76.3027 110° East 570 656 35,400 -2,640 Descending FlightAware ADS-B
07:11PM 41.4172 -76.1999 110° East 576 663 33,900 -2,520 Descending FlightAware ADS-B
07:12PM 41.3882 -76.0961 110° East 565 650 32,800 -2,280 Descending FlightAware ADS-B
07:12PM 41.3606 -75.9980 111° Southeast 558 642 31,600 -2,700 Descending FlightAware ADS-B
07:13PM 41.3333 -75.9015 111° Southeast 557 641 30,100 -3,300 Descending FlightAware ADS-B
07:13PM 41.3044 -75.7998 111° Southeast 560 644 28,200 -3,720 Descending FlightAware ADS-B
07:14PM 41.2759 -75.7027 111° Southeast 560 644 26,300 -3,540 Descending FlightAware ADS-B
07:14PM 41.2452 -75.6062 113° Southeast 555 639 24,700 -2,760 Descending FlightAware ADS-B
07:15PM 41.2134 -75.5100 114° Southeast 527 606 23,500 -1,620 Descending FlightAware ADS-B
07:15PM 41.1842 -75.4228 114° Southeast 504 580 23,000 -600 Descending FlightAware ADS-B
07:16PM 41.1557 -75.3387 114° Southeast 501 577 22,900 -600 Descending FlightAware ADS-B
07:16PM 41.1266 -75.2529 114° Southeast 504 580 22,400 -1,020 Descending FlightAware ADS-B
07:17PM 41.0920 -75.1500 114° Southeast 491 565 21,800 -960 Descending FlightAware
07:18PM 41.0510 -75.0310 115° Southeast 487 560 21,100 -960 Descending FlightAware
07:18PM 41.0140 -74.9210 114° Southeast 481 554 20,500 -1,020 Descending FlightAware
07:19PM 40.9890 -74.8070 106° East 479 551 19,800 -960 Descending FlightAware
07:20PM 40.9750 -74.6770 98° East 472 543 19,200 -600 Descending FlightAware
07:20PM 40.9630 -74.5630 98° East 469 540 19,000 -180 Descending FlightAware
07:21PM 40.9500 -74.4470 98° East 471 542 19,000  Level FlightAware
07:22PM 40.9370 -74.3300 98° East 470 541 19,000  Level FlightAware
07:22PM 40.9338 -74.3025 99° East 470 541 19,000  Level FlightAware ADS-B
07:22PM 40.9230 -74.2068 98° East 461 531 19,000  Level FlightAware ADS-B
07:23PM 40.9159 -74.1631 102° East 441 507 19,000  Level FlightAware ADS-B
07:23PM 40.9072 -74.1301 109° East 428 493 19,000  Level FlightAware ADS-B
07:23PM 40.8984 -74.1071 117° Southeast 413 475 19,000  Level FlightAware ADS-B
07:23PM 40.8916 -74.0930 123° Southeast 405 466 19,000  Level FlightAware ADS-B
07:23PM 40.8872 -74.0853 127° Southeast 398 458 19,000 -480 Level FlightAware ADS-B
07:24PM 40.8746 -74.0676 133° Southeast 383 441 18,900 -660 Descending FlightAware ADS-B
07:24PM 40.8619 -74.0543 142° Southeast 374 430 18,800 -600 Descending FlightAware ADS-B
07:24PM 40.8613 -74.0538 148° Southeast 372 428 18,800 -900 Level FlightAware ADS-B
07:24PM 40.8518 -74.0465 150° Southeast 364 419 18,700 -1,320 Descending FlightAware ADS-B
07:24PM 40.8041 -74.0223 159° South 348 400 18,000 -1,500 Descending FlightAware ADS-B
07:25PM 40.7230 -73.9840 160° South 339 390 16,500 -1,920 Descending FlightAware
07:26PM 40.6530 -73.9530 161° South 330 380 14,800 -2,040 Descending FlightAware
07:27PM 40.5960 -73.9270 161° South 321 369 13,700 -1,320 Descending FlightAware
07:27PM 40.5370 -73.9020 162° South 316 364 13,000 -540 Descending FlightAware
07:28PM 40.4790 -73.8780 163° South 312 359 13,000 -1,140 Level FlightAware
07:29PM 40.4190 -73.8530 162° South 305 351 11,400 -2,400 Descending FlightAware
07:29PM 40.3700 -73.8240 156° South 312 359 9,800 -2,400 Descending FlightAware
07:30PM 40.3570 -73.7960 121° Southeast 310 357 9,200 -2,220 Descending FlightAware
07:30PM 40.3530 -73.7730 103° East 309 356 8,700 -2,220 Descending FlightAware
07:30PM 40.3480 -73.7260 98° East 304 350 7,800 -1,980 Descending FlightAware
07:31PM 40.3410 -73.6710 99° East 292 336 6,900 -1,620 Descending FlightAware
07:32PM 40.3645 -73.6105 63° Northeast 281 323 5,800 -1,620 Descending FlightAware ADS-B
07:32PM 40.3943 -73.5882 30° Northeast 280 322 5,100 -1,320 Descending FlightAware ADS-B
07:33PM 40.4480 -73.5480 30° Northeast 277 319 4,200 -840 Descending FlightAware
07:33PM 40.4890 -73.5310 18° North 273 314 4,000 -300 Descending FlightAware
07:34PM 40.5120 -73.5260 North 272 313 4,000  Level FlightAware
07:34PM 40.5500 -73.5170 10° North 273 314 4,000  Level FlightAware
07:34PM 40.5650 -73.5140 North 274 315 4,000  Level FlightAware
07:35PM 40.6010 -73.5060 10° North 271 312 4,000  Level FlightAware
07:35PM 40.6380 -73.4970 10° North 265 305 4,000  Level FlightAware
07:36PM 40.6690 -73.4900 10° North 232 267 4,000 -360 Level FlightAware
07:36PM 40.6960 -73.4840 10° North 224 258 3,700 -900 Descending FlightAware
07:37PM 40.7260 -73.4770 10° North 224 258 3,200 -900 Descending FlightAware
07:37PM 40.7360 -73.4750 North 222 255 3,100 -300 Descending FlightAware
07:37PM 40.7600 -73.4870 339° North 186 214 3,000 -420 Descending FlightAware
07:38PM 40.7710 -73.5000 318° Northwest 179 206 2,800 -840 Descending FlightAware
07:38PM 40.7850 -73.5220 310° West 174 200 2,400 -720 Descending FlightAware
07:39PM 40.7850 -73.5650 270° West 179 206 2,000 -360 Descending FlightAware
07:39PM 40.7790 -73.5970 256° West 178 205 2,000  Level FlightAware
07:40PM 40.7740 -73.6230 256° West 174 200 2,000  Level FlightAware
07:40PM 40.7680 -73.6350 237° Southwest 177 204 2,000  Level FlightAware
07:40PM 40.7560 -73.6580 235° Southwest 170 196 2,000  Level FlightAware
07:41PM 40.7400 -73.6800 226° Southwest 180 207 2,000 -360 Level FlightAware
07:41PM 40.7200 -73.6970 213° Southwest 181 208 1,700 -780 Descending FlightAware
07:42PM 40.7000 -73.7120 210° Southwest 168 193 1,300 -900 Descending FlightAware
07:42PM 40.6840 -73.7250 212° Southwest 138 159 900 -780 Descending FlightAware
07:43PM 40.6680 -73.7370 210° Southwest 126 145 600 -660 Descending FlightAware
07:43PM 40.6540 -73.7480 211° Southwest 131 151 300 -600 Descending FlightAware
07:44PM 40.6390 -73.7590 209° Southwest 128 147 100 -480 Descending FlightAware
07:44PM 40.6310 -73.7660 214° Southwest 36 41 -240 Descending FlightAware
07:44PM 40.6300 -73.7680 237° Southwest 27 31  Level FlightAware
07:45PM 40.6290 -73.7690 217° Southwest 22 25  Level FlightAware
07:45PM 40.6310 -73.7730 303° West 32 37  Level FlightAware